Time;durP1;ratioP1;P1;durP2;ratioP2;P2;SDS_P1;SDS_P2;PMS_P1;PMS_P2;Temp;Humidity;BMP_temperature;BMP_pressure;BME280_temperature;BME280_humidity;BME280_pressure;Samples;Min_cycle;Max_cycle;Signal;HPM_P1;HPM_P2
2020/12/19 00:02:24;;;;;;;21.23;14.13;;;0.20;87.10;;;;;;5094355;28;20025;-80
2020/12/19 00:04:50;;;;;;;22.55;12.75;;;0.20;87.10;;;;;;5074864;28;20032;-81
2020/12/19 00:07:17;;;;;;;24.38;13.50;;;0.20;87.30;;;;;;5076490;28;20020;-79
2020/12/19 00:09:43;;;;;;;19.90;12.57;;;0.10;87.30;;;;;;5093091;28;20031;-80
2020/12/19 00:12:09;;;;;;;21.63;14.05;;;0.00;87.70;;;;;;5077008;28;20028;-81
2020/12/19 00:14:35;;;;;;;19.67;12.75;;;0.00;88.10;;;;;;5073037;28;20052;-81
2020/12/19 00:17:02;;;;;;;19.63;12.85;;;0.00;88.30;;;;;;5075220;28;20032;-79
2020/12/19 00:19:27;;;;;;;21.85;13.10;;;0.00;88.50;;;;;;5061745;28;20047;-79
2020/12/19 00:21:53;;;;;;;24.10;12.15;;;-0.10;88.70;;;;;;5075011;28;20029;-81
2020/12/19 00:24:19;;;;;;;19.27;11.85;;;-0.10;89.30;;;;;;5072887;28;20028;-80
2020/12/19 00:26:45;;;;;;;19.98;12.38;;;-0.10;90.00;;;;;;5083413;28;20068;-78
2020/12/19 00:29:11;;;;;;;22.05;12.30;;;-0.10;89.40;;;;;;5077143;28;20016;-81
2020/12/19 00:31:39;;;;;;;18.08;11.50;;;-0.20;89.70;;;;;;5074535;28;20027;-80
2020/12/19 00:34:06;;;;;;;24.27;11.65;;;-0.10;90.00;;;;;;5072796;28;20029;-79
2020/12/19 00:36:32;;;;;;;19.75;12.80;;;-0.20;89.80;;;;;;5061744;28;20021;-81
2020/12/19 00:38:58;;;;;;;18.48;12.30;;;-0.20;90.00;;;;;;5072807;28;20054;-80
2020/12/19 00:41:26;;;;;;;20.45;12.85;;;-0.20;90.10;;;;;;5072596;28;20028;-80
2020/12/19 00:43:52;;;;;;;;;;;-0.20;90.10;;;;;;5072133;28;20591;-79
2020/12/19 00:46:18;;;;;;;19.88;11.35;;;-0.20;90.00;;;;;;5071389;28;19955;-78
2020/12/19 00:48:44;;;;;;;19.17;11.55;;;-0.20;90.20;;;;;;5072419;28;20025;-80
2020/12/19 00:51:18;;;;;;;20.50;12.30;;;-0.20;90.30;;;;;;5072496;28;20040;-80
2020/12/19 00:53:45;;;;;;;18.58;11.75;;;-0.20;90.50;;;;;;5072294;28;20056;-81
2020/12/19 00:56:19;;;;;;;20.17;13.50;;;-0.30;90.50;;;;;;5072517;28;20082;-80
2020/12/19 00:58:45;;;;;;;21.42;12.85;;;-0.40;90.60;;;;;;5070944;28;20037;-80
2020/12/19 01:01:12;;;;;;;18.48;11.32;;;-0.40;90.90;;;;;;5064810;28;20478;-79
2020/12/19 01:03:38;;;;;;;20.67;12.90;;;-0.50;91.10;;;;;;5072093;28;20381;-81
2020/12/19 01:06:04;;;;;;;18.15;10.38;;;-0.50;91.20;;;;;;5073556;28;20032;-80
2020/12/19 01:08:30;;;;;;;21.08;11.90;;;-0.50;91.30;;;;;;5076282;28;20052;-80
2020/12/19 01:10:56;;;;;;;19.85;14.32;;;-0.50;91.40;;;;;;5074878;28;20481;-79
2020/12/19 01:13:22;;;;;;;19.33;11.85;;;-0.60;91.60;;;;;;5090447;28;20040;-82
2020/12/19 01:15:47;;;;;;;20.92;12.90;;;-0.60;91.60;;;;;;5076482;28;20024;-80
2020/12/19 01:18:15;;;;;;;20.25;11.90;;;-0.60;91.80;;;;;;5077417;28;20056;-79
2020/12/19 01:20:41;;;;;;;;;;;-0.50;91.90;;;;;;5083164;28;20016;-79
2020/12/19 01:23:13;;;;;;;17.60;10.70;;;-0.50;91.70;;;;;;5079973;28;20049;-81
2020/12/19 01:25:39;;;;;;;18.88;11.45;;;-0.50;91.70;;;;;;5078735;28;20444;-82
2020/12/19 01:28:05;;;;;;;20.98;11.43;;;-0.50;91.80;;;;;;5087347;28;20024;-81
2020/12/19 01:30:31;;;;;;;19.25;11.70;;;-0.40;91.90;;;;;;5084345;28;20020;-80
2020/12/19 01:32:57;;;;;;;20.52;12.55;;;-0.50;91.80;;;;;;5075827;28;20040;-80
2020/12/19 01:35:23;;;;;;;16.80;10.67;;;-0.50;91.90;;;;;;5085941;28;20066;-81
2020/12/19 01:37:49;;;;;;;20.52;12.05;;;-0.50;91.90;;;;;;5084041;28;20059;-81
2020/12/19 01:40:15;;;;;;;16.55;11.25;;;-0.60;92.00;;;;;;5081829;28;20381;-80
2020/12/19 01:42:41;;;;;;;20.35;12.93;;;-0.60;92.20;;;;;;5080070;28;20022;-80
2020/12/19 01:45:07;;;;;;;18.70;10.77;;;-0.60;92.20;;;;;;5082474;28;20029;-80
2020/12/19 01:47:34;;;;;;;20.95;12.13;;;-0.50;92.30;;;;;;5078528;28;20326;-80
2020/12/19 01:50:04;;;;;;;20.90;11.90;;;-0.60;92.30;;;;;;5079393;28;20066;-82
2020/12/19 01:52:31;;;;;;;21.35;11.38;;;-0.50;92.50;;;;;;5076118;28;20032;-79
2020/12/19 01:54:58;;;;;;;19.33;12.03;;;-0.50;92.50;;;;;;5075455;28;20175;-81
2020/12/19 01:57:28;;;;;;;16.48;11.25;;;-0.40;92.50;;;;;;5075613;28;20028;-80
2020/12/19 01:59:54;;;;;;;22.63;11.80;;;-0.40;92.30;;;;;;5082491;28;20032;-80
2020/12/19 02:02:23;;;;;;;24.02;13.25;;;-0.50;92.40;;;;;;5081833;28;20604;-81
2020/12/19 02:04:49;;;;;;;20.52;11.93;;;-0.50;92.50;;;;;;5075601;28;20019;-80
2020/12/19 02:07:15;;;;;;;19.70;11.57;;;-0.40;92.50;;;;;;5075275;28;20027;-81
2020/12/19 02:09:41;;;;;;;18.40;11.38;;;-0.50;92.50;;;;;;5074983;28;20020;-81
2020/12/19 02:12:09;;;;;;;18.70;11.90;;;-0.50;92.40;;;;;;5075007;28;20474;-80
2020/12/19 02:14:35;;;;;;;21.15;13.10;;;-0.70;92.60;;;;;;5074769;28;20100;-80
2020/12/19 02:17:10;;;;;;;22.30;12.93;;;-0.60;92.80;;;;;;5073422;28;20028;-80
2020/12/19 02:19:36;;;;;;;19.52;11.63;;;-0.60;93.00;;;;;;5075091;28;20131;-80
2020/12/19 02:22:05;;;;;;;20.00;11.70;;;-0.50;92.80;;;;;;5075773;28;20046;-80
2020/12/19 02:24:31;;;;;;;20.58;12.65;;;-0.50;92.80;;;;;;5073179;28;20028;-79
2020/12/19 02:26:58;;;;;;;19.65;12.20;;;-0.60;92.70;;;;;;5074484;28;20044;-80
2020/12/19 02:29:26;;;;;;;19.73;12.65;;;-0.60;92.70;;;;;;5074852;28;20069;-81
2020/12/19 02:31:54;;;;;;;20.08;12.95;;;-0.70;92.90;;;;;;5072123;28;20509;-80
2020/12/19 02:34:19;;;;;;;19.23;11.48;;;-0.70;93.00;;;;;;5065039;28;20198;-79
2020/12/19 02:36:45;;;;;;;19.98;12.07;;;-0.80;93.00;;;;;;5074649;28;20533;-81
2020/12/19 02:39:11;;;;;;;23.15;12.55;;;-0.80;93.20;;;;;;5074731;28;20059;-80
2020/12/19 02:41:39;;;;;;;25.30;13.57;;;-0.80;93.20;;;;;;5074345;28;20024;-80
2020/12/19 02:44:08;;;;;;;16.50;10.15;;;-0.80;93.30;;;;;;5074619;28;20021;-79
2020/12/19 02:46:34;;;;;;;17.45;11.80;;;-0.80;93.20;;;;;;5074399;28;20166;-81
2020/12/19 02:49:00;;;;;;;19.75;12.13;;;-0.80;93.30;;;;;;5074159;28;20132;-81
2020/12/19 02:51:26;;;;;;;22.48;12.23;;;-0.70;93.30;;;;;;5072960;28;20492;-79
2020/12/19 02:53:52;;;;;;;23.30;13.80;;;-0.70;93.20;;;;;;5074023;28;20021;-78
2020/12/19 02:56:17;;;;;;;16.25;11.68;;;-0.80;93.10;;;;;;5080073;28;20025;-80
2020/12/19 02:58:43;;;;;;;22.77;13.80;;;-0.80;93.20;;;;;;5076326;28;20039;-81
2020/12/19 03:01:47;;;;;;;16.90;11.32;;;-0.80;93.20;;;;;;5080111;28;20473;-80
2020/12/19 03:04:14;;;;;;;21.35;12.45;;;-0.70;93.20;;;;;;5074351;28;20021;-80
2020/12/19 03:06:40;;;;;;;;;;;-0.80;93.10;;;;;;5074795;28;20068;-81
2020/12/19 03:09:06;;;;;;;21.35;12.27;;;-0.80;93.10;;;;;;5074047;28;20324;-82
2020/12/19 03:11:32;;;;;;;24.77;11.77;;;-0.90;93.10;;;;;;5073736;28;20101;-78
2020/12/19 03:13:57;;;;;;;18.20;10.73;;;-0.90;93.30;;;;;;5073934;28;20037;-79
2020/12/19 03:16:23;;;;;;;18.48;11.27;;;-0.90;93.10;;;;;;5073573;28;20029;-81
2020/12/19 03:18:50;;;;;;;16.85;11.40;;;-0.90;93.20;;;;;;5082707;28;20109;-79
2020/12/19 03:21:16;;;;;;;21.15;12.07;;;-0.90;93.40;;;;;;5078896;28;20415;-80
2020/12/19 03:23:41;;;;;;;18.80;12.23;;;-0.80;93.20;;;;;;5073901;28;20095;-79
2020/12/19 03:26:07;;;;;;;19.00;11.35;;;-0.80;93.20;;;;;;5074410;28;20036;-81
2020/12/19 03:28:33;;;;;;;18.70;11.70;;;-0.70;93.10;;;;;;5074694;28;20473;-80
2020/12/19 03:30:59;;;;;;;21.88;14.90;;;-0.80;92.90;;;;;;5068340;28;20025;-82
2020/12/19 03:33:25;;;;;;;20.98;12.00;;;-0.80;92.90;;;;;;5069818;28;20036;-80
2020/12/19 03:35:51;;;;;;;20.55;13.48;;;-0.90;93.00;;;;;;5084768;28;20148;-79
2020/12/19 03:38:17;;;;;;;24.67;13.55;;;-0.80;93.00;;;;;;5088566;28;20036;-80
2020/12/19 03:40:43;;;;;;;23.38;13.07;;;-0.80;93.00;;;;;;5073998;28;20017;-81
2020/12/19 03:43:08;;;;;;;21.77;12.68;;;-0.70;93.10;;;;;;5072595;28;20044;-80
2020/12/19 03:45:34;;;;;;;18.83;13.15;;;-0.70;92.80;;;;;;5073598;28;20028;-81
2020/12/19 03:48:00;;;;;;;21.48;13.55;;;-0.70;92.90;;;;;;5073961;28;20031;-80
2020/12/19 03:50:26;;;;;;;22.67;12.77;;;-0.70;92.80;;;;;;5076430;28;20112;-81
2020/12/19 03:52:52;;;;;;;21.33;13.23;;;-0.70;92.80;;;;;;5084287;28;20017;-79
2020/12/19 03:55:17;;;;;;;24.23;13.88;;;-0.70;92.90;;;;;;5073287;28;20052;-80
2020/12/19 03:57:43;;;;;;;18.95;12.60;;;-0.70;92.90;;;;;;5071845;28;20029;-79
2020/12/19 04:00:09;;;;;;;21.63;12.93;;;-0.70;92.90;;;;;;5073263;28;20028;-80
2020/12/19 04:02:36;;;;;;;25.00;15.32;;;-0.70;92.90;;;;;;5073040;28;20013;-79
2020/12/19 04:05:07;;;;;;;22.52;13.50;;;-0.70;92.80;;;;;;5073352;28;20020;-80
2020/12/19 04:07:32;;;;;;;24.17;13.57;;;-0.70;92.70;;;;;;5072745;28;20016;-80
2020/12/19 04:09:59;;;;;;;26.42;14.35;;;-0.60;92.80;;;;;;5072744;28;20017;-81
2020/12/19 04:12:25;;;;;;;20.48;14.15;;;-0.70;92.70;;;;;;5071531;28;20508;-79
2020/12/19 04:14:51;;;;;;;23.27;14.13;;;-0.70;92.80;;;;;;5072558;28;20072;-79
2020/12/19 04:17:17;;;;;;;23.02;13.95;;;-0.70;92.80;;;;;;5072736;28;20473;-80
2020/12/19 04:19:43;;;;;;;23.85;14.20;;;-0.70;92.80;;;;;;5074499;28;20405;-79
2020/12/19 04:22:09;;;;;;;28.33;14.70;;;-0.70;92.70;;;;;;5084662;28;20027;-80
2020/12/19 04:24:35;;;;;;;18.70;14.10;;;-0.70;92.70;;;;;;5072584;28;20025;-79
2020/12/19 04:27:02;;;;;;;21.95;13.00;;;-0.70;92.70;;;;;;5072242;28;20032;-80
2020/12/19 04:29:28;;;;;;;21.00;12.75;;;-0.70;92.60;;;;;;5073401;28;20024;-81
2020/12/19 04:31:55;;;;;;;20.27;13.10;;;-0.70;92.60;;;;;;5076647;28;20016;-81
2020/12/19 04:34:21;;;;;;;19.45;11.57;;;-0.70;92.60;;;;;;5073987;28;20055;-80
2020/12/19 04:36:47;;;;;;;23.27;13.93;;;-0.60;92.60;;;;;;5072172;28;20086;-80
2020/12/19 04:39:13;;;;;;;16.98;11.10;;;-0.60;92.60;;;;;;5074055;28;20029;-80
2020/12/19 04:41:39;;;;;;;20.42;12.57;;;-0.60;92.40;;;;;;5077309;28;20485;-80
2020/12/19 04:44:05;;;;;;;19.55;12.85;;;-0.70;92.30;;;;;;5079875;28;20024;-81
2020/12/19 04:46:31;;;;;;;19.55;12.75;;;-0.70;92.40;;;;;;5077865;28;20021;-81
2020/12/19 04:48:59;;;;;;;18.88;11.30;;;-0.70;92.40;;;;;;5078977;28;20052;-80
2020/12/19 04:51:28;;;;;;;17.08;10.90;;;-0.70;92.40;;;;;;5079173;28;20481;-80
2020/12/19 04:53:54;;;;;;;20.42;13.10;;;-0.70;92.40;;;;;;5078914;28;20036;-80
2020/12/19 04:56:23;;;;;;;19.80;11.15;;;-0.70;92.30;;;;;;5078938;28;20020;-82
2020/12/19 04:58:57;;;;;;;21.02;13.02;;;-0.70;92.30;;;;;;5078622;28;20515;-82
2020/12/19 05:01:23;;;;;;;16.35;10.93;;;-0.70;92.40;;;;;;5079260;28;20024;-80
2020/12/19 05:03:50;;;;;;;16.50;10.50;;;-0.60;92.40;;;;;;5078652;28;20103;-82
2020/12/19 05:06:17;;;;;;;20.85;11.90;;;-0.70;92.30;;;;;;5078692;28;20027;-80
2020/12/19 05:08:44;;;;;;;16.40;11.48;;;-0.70;92.50;;;;;;5092377;28;20500;-81
2020/12/19 05:11:12;;;;;;;19.88;12.15;;;-0.70;92.60;;;;;;5079163;28;20029;-81
2020/12/19 05:13:39;;;;;;;22.73;13.55;;;-0.70;92.60;;;;;;5078745;28;20473;-81
2020/12/19 05:16:05;;;;;;;;;;;-0.70;92.40;;;;;;5079343;28;20028;-81
2020/12/19 05:18:31;;;;;;;18.45;11.32;;;-0.80;92.50;;;;;;5064701;28;20352;-80
2020/12/19 05:20:57;;;;;;;22.15;12.60;;;-0.80;92.50;;;;;;5079110;28;20067;-80
2020/12/19 05:23:24;;;;;;;22.42;13.43;;;-0.80;92.50;;;;;;5092382;28;20024;-80
2020/12/19 05:25:50;;;;;;;18.50;12.02;;;-0.80;92.70;;;;;;5091317;28;20131;-80
2020/12/19 05:28:16;;;;;;;25.00;13.73;;;-0.70;92.70;;;;;;5074497;28;20052;-78
2020/12/19 05:30:42;;;;;;;21.23;12.95;;;-0.70;92.80;;;;;;5079218;28;20100;-80
2020/12/19 05:33:10;;;;;;;22.13;14.27;;;-0.60;92.80;;;;;;5078785;28;20055;-79
2020/12/19 05:35:38;;;;;;;21.67;13.88;;;-0.60;92.60;;;;;;5078780;28;20012;-80
2020/12/19 05:38:04;;;;;;;;;;;-0.60;92.60;;;;;;5079392;28;20013;-81
2020/12/19 05:40:31;;;;;;;27.60;15.25;;;-0.60;92.60;;;;;;5078726;28;19904;-80
2020/12/19 05:42:58;;;;;;;24.52;15.27;;;-0.60;92.70;;;;;;5079061;28;20108;-80
2020/12/19 05:45:26;;;;;;;24.83;14.32;;;-0.60;92.60;;;;;;5081366;28;20381;-81
2020/12/19 05:47:51;;;;;;;;;;;-0.60;92.70;;;;;;5079464;28;20039;-80
2020/12/19 05:50:18;;;;;;;22.83;14.27;;;-0.60;92.60;;;;;;5078598;28;20354;-79
2020/12/19 05:52:44;;;;;;;22.25;14.50;;;-0.70;92.60;;;;;;5076699;28;20013;-81
2020/12/19 05:55:13;;;;;;;20.55;14.75;;;-0.70;92.60;;;;;;5074017;28;20379;-80
2020/12/19 05:57:40;;;;;;;21.67;15.70;;;-0.70;92.70;;;;;;5075679;28;20465;-80
2020/12/19 06:00:12;;;;;;;19.63;14.40;;;-0.70;92.70;;;;;;5074979;28;20055;-81
2020/12/19 06:02:38;;;;;;;20.88;13.13;;;-0.70;92.80;;;;;;5080514;28;20032;-81
2020/12/19 06:05:13;;;;;;;25.33;14.70;;;-0.60;92.90;;;;;;5084140;28;20103;-80
2020/12/19 06:07:41;;;;;;;22.30;13.82;;;-0.60;92.90;;;;;;5080499;28;20009;-81
2020/12/19 06:10:15;;;;;;;23.52;14.68;;;-0.50;92.80;;;;;;5077370;28;20043;-80
2020/12/19 06:12:51;;;;;;;18.20;11.55;;;-0.40;92.70;;;;;;5074438;28;20028;-80
2020/12/19 06:15:28;;;;;;;18.40;13.32;;;-0.40;92.60;;;;;;5073320;28;20121;-81
2020/12/19 06:18:00;;;;;;;19.42;12.65;;;-0.40;92.40;;;;;;5069777;28;20032;-81
2020/12/19 06:20:29;;;;;;;21.90;14.48;;;-0.40;92.40;;;;;;5078055;28;20001;-80
2020/12/19 06:22:56;;;;;;;16.65;10.15;;;-0.40;92.50;;;;;;5081701;28;20021;-79
2020/12/19 06:25:41;;;;;;;17.25;11.20;;;-0.50;92.40;;;;;;5067672;28;20032;-81
2020/12/19 06:28:08;;;;;;;16.52;11.90;;;-0.50;92.50;;;;;;5071915;28;20067;-81
2020/12/19 06:30:34;;;;;;;15.70;11.10;;;-0.50;92.40;;;;;;5076180;28;20039;-79
2020/12/19 06:33:18;;;;;;;18.45;11.30;;;-0.50;92.40;;;;;;5075658;28;20024;-81
2020/12/19 06:35:48;;;;;;;16.95;11.85;;;-0.50;92.30;;;;;;5076316;28;20040;-81
2020/12/19 06:38:14;;;;;;;16.08;11.43;;;-0.50;92.30;;;;;;5087597;28;20473;-82
2020/12/19 06:40:40;;;;;;;16.23;11.43;;;-0.50;92.40;;;;;;5063680;28;20021;-81
2020/12/19 06:43:15;;;;;;;20.35;12.70;;;-0.50;92.30;;;;;;5075167;28;20028;-82
2020/12/19 06:45:41;;;;;;;17.52;13.00;;;-0.40;92.20;;;;;;5080181;28;20087;-82
2020/12/19 06:48:29;;;;;;;16.13;11.02;;;-0.30;92.10;;;;;;5083056;28;20028;-80
2020/12/19 06:50:58;;;;;;;12.88;10.45;;;-0.30;92.00;;;;;;5062977;28;20027;-83
2020/12/19 06:53:25;;;;;;;17.55;11.48;;;-0.30;91.90;;;;;;5077576;28;20059;-82
2020/12/19 06:55:51;;;;;;;15.43;10.57;;;-0.30;91.80;;;;;;5076344;28;20421;-81
2020/12/19 06:58:31;;;;;;;19.67;11.80;;;-0.40;91.90;;;;;;5074661;28;20034;-81
2020/12/19 07:00:57;;;;;;;18.25;10.52;;;-0.40;91.90;;;;;;5074191;28;20050;-80
2020/12/19 07:03:40;;;;;;;16.50;11.00;;;-0.40;91.80;;;;;;5074965;28;20024;-81
2020/12/19 07:06:16;;;;;;;14.13;10.23;;;-0.40;91.80;;;;;;5074583;28;20020;-81
2020/12/19 07:08:43;;;;;;;15.13;10.00;;;-0.40;91.70;;;;;;5081850;28;20020;-80
2020/12/19 07:11:35;;;;;;;17.85;12.02;;;-0.40;91.80;;;;;;5083380;28;20017;-79
2020/12/19 07:14:02;;;;;;;14.82;10.50;;;-0.30;91.80;;;;;;5085637;28;20048;-80
2020/12/19 07:16:51;;;;;;;15.93;11.35;;;-0.30;91.80;;;;;;5077208;28;20032;-81
2020/12/19 07:19:27;;;;;;;14.27;10.82;;;-0.30;91.70;;;;;;5084996;28;20034;-81
2020/12/19 07:21:55;;;;;;;13.07;9.03;;;-0.30;91.60;;;;;;5075180;28;20029;-80
2020/12/19 07:24:22;;;;;;;14.52;10.27;;;-0.30;91.60;;;;;;5076784;28;20016;-81
2020/12/19 07:26:52;;;;;;;14.85;10.30;;;-0.40;91.70;;;;;;5090466;28;20412;-80
2020/12/19 07:29:23;;;;;;;17.65;10.20;;;-0.30;91.70;;;;;;5087275;28;20020;-81
2020/12/19 07:31:54;;;;;;;20.05;12.95;;;-0.30;92.00;;;;;;5077659;28;20385;-83
2020/12/19 07:34:24;;;;;;;14.18;9.77;;;-0.30;91.50;;;;;;5077437;28;20095;-78
2020/12/19 07:36:51;;;;;;;17.38;10.80;;;-0.30;91.50;;;;;;5077853;28;20020;-82
2020/12/19 07:39:19;;;;;;;13.52;11.07;;;-0.20;91.50;;;;;;5076523;28;20029;-85
2020/12/19 07:41:59;;;;;;;13.05;9.75;;;-0.20;91.40;;;;;;5077963;28;20053;-82
2020/12/19 07:44:26;;;;;;;14.75;10.48;;;-0.20;91.40;;;;;;5076179;28;20460;-82
2020/12/19 07:47:00;;;;;;;14.70;10.32;;;-0.20;91.30;;;;;;5073276;28;20017;-82
2020/12/19 07:49:53;;;;;;;12.95;9.48;;;-0.20;91.30;;;;;;5074785;28;20106;-86
2020/12/19 07:52:26;;;;;;;13.68;9.73;;;-0.20;91.20;;;;;;5073068;28;20043;-82
2020/12/19 07:54:55;;;;;;;14.35;9.20;;;-0.20;91.20;;;;;;5068550;28;20028;-83
2020/12/19 07:57:21;;;;;;;14.27;8.90;;;-0.20;91.30;;;;;;5072265;28;20017;-82
2020/12/19 07:59:49;;;;;;;12.32;8.85;;;-0.20;91.20;;;;;;5076139;28;20390;-83
2020/12/19 08:02:17;;;;;;;12.80;8.20;;;-0.30;91.10;;;;;;5075469;28;20021;-83
2020/12/19 08:04:55;;;;;;;11.18;9.05;;;-0.30;91.30;;;;;;5083116;28;20024;-82
2020/12/19 08:07:25;;;;;;;13.45;9.25;;;-0.30;91.30;;;;;;5073802;28;20027;-81
2020/12/19 08:10:05;;;;;;;13.90;9.77;;;-0.30;91.20;;;;;;5077942;28;20488;-82
2020/12/19 08:12:32;;;;;;;11.35;8.60;;;-0.30;91.30;;;;;;5078238;28;20025;-81
2020/12/19 08:15:07;;;;;;;14.10;8.65;;;-0.30;91.30;;;;;;5076453;28;20032;-82
2020/12/19 08:17:45;;;;;;;12.25;8.50;;;-0.30;91.30;;;;;;5078148;28;20025;-82
2020/12/19 08:20:18;;;;;;;14.50;10.80;;;-0.30;91.30;;;;;;5079539;28;20024;-82
2020/12/19 08:22:48;;;;;;;14.07;9.48;;;-0.30;91.30;;;;;;5077181;28;20056;-82
2020/12/19 08:25:16;;;;;;;11.88;9.23;;;-0.30;91.30;;;;;;5073840;28;20091;-82
2020/12/19 08:27:45;;;;;;;11.77;9.10;;;-0.20;91.20;;;;;;5078193;28;20505;-82
2020/12/19 08:30:25;;;;;;;15.15;9.57;;;-0.20;91.10;;;;;;5076323;28;20048;-82
2020/12/19 08:32:55;;;;;;;13.63;10.23;;;-0.30;91.00;;;;;;5073603;28;20060;-81
2020/12/19 08:35:22;;;;;;;14.02;9.10;;;-0.30;91.10;;;;;;5073162;28;20078;-81
2020/12/19 08:37:48;;;;;;;13.63;9.75;;;-0.20;91.10;;;;;;5072742;28;20090;-82
2020/12/19 08:40:16;;;;;;;16.65;9.75;;;-0.20;91.00;;;;;;5072791;28;20409;-82
2020/12/19 08:42:44;;;;;;;13.40;9.48;;;-0.20;91.10;;;;;;5072979;28;20025;-82
2020/12/19 08:45:28;;;;;;;19.73;10.50;;;-0.20;91.10;;;;;;5072954;28;20028;-81
2020/12/19 08:48:05;;;;;;;13.32;9.48;;;-0.10;91.40;;;;;;5073508;28;20065;-83
2020/12/19 08:50:38;;;;;;;13.13;9.88;;;-0.10;91.00;;;;;;5074714;28;20373;-84
2020/12/19 08:53:16;;;;;;;13.73;10.10;;;0.00;90.90;;;;;;5070353;28;20550;-83
2020/12/19 08:55:42;;;;;;;13.90;10.38;;;0.00;90.80;;;;;;5070983;28;20103;-81
2020/12/19 08:58:32;;;;;;;17.52;10.68;;;0.00;90.80;;;;;;5071830;28;20424;-82
2020/12/19 09:00:59;;;;;;;11.45;9.20;;;0.00;90.80;;;;;;5079844;28;20080;-80
2020/12/19 09:03:33;;;;;;;15.50;9.48;;;0.00;90.70;;;;;;5081826;28;20157;-83
2020/12/19 09:06:04;;;;;;;14.45;9.30;;;-0.10;90.70;;;;;;5073531;28;20028;-79
2020/12/19 09:09:02;;;;;;;12.88;10.27;;;-0.10;90.80;;;;;;5064666;28;20103;-81
2020/12/19 09:11:31;;;;;;;14.35;11.20;;;-0.10;90.90;;;;;;5061168;28;20105;-77
2020/12/19 09:14:08;;;;;;;13.40;9.82;;;-0.10;90.90;;;;;;5073291;28;20316;-82
2020/12/19 09:16:34;;;;;;;19.40;10.57;;;-0.10;90.90;;;;;;5072324;28;20074;-80
2020/12/19 09:19:00;;;;;;;15.18;10.05;;;-0.10;90.90;;;;;;5072139;28;20104;-81
2020/12/19 09:21:26;;;;;;;17.05;11.27;;;-0.10;91.00;;;;;;5075651;28;20052;-81
2020/12/19 09:23:54;;;;;;;12.88;10.20;;;-0.10;91.00;;;;;;5073822;28;20025;-80
2020/12/19 09:26:19;;;;;;;;;;;0.00;91.00;;;;;;5072857;28;20036;-82
2020/12/19 09:28:47;;;;;;;18.13;10.75;;;0.00;91.00;;;;;;5062469;22;19925;-80
2020/12/19 09:31:13;;;;;;;18.88;11.18;;;0.00;91.10;;;;;;5058643;28;20021;-82
2020/12/19 09:33:38;;;;;;;13.52;9.70;;;-0.10;91.10;;;;;;5061273;28;20028;-82
2020/12/19 09:36:04;;;;;;;15.10;10.93;;;-0.10;91.20;;;;;;5054110;28;20037;-81
2020/12/19 09:38:30;;;;;;;17.52;10.07;;;0.00;91.20;;;;;;5061189;28;20021;-81
2020/12/19 09:40:56;;;;;;;13.10;8.98;;;0.00;91.20;;;;;;5058957;28;20454;-79
2020/12/19 09:43:21;;;;;;;13.32;11.05;;;0.00;91.10;;;;;;5059420;28;20021;-80
2020/12/19 09:45:47;;;;;;;16.38;10.05;;;0.10;91.10;;;;;;5061826;28;20032;-80
2020/12/19 09:48:13;;;;;;;16.50;9.95;;;0.00;91.00;;;;;;5058102;28;20486;-81
2020/12/19 09:50:39;;;;;;;14.25;10.02;;;0.00;91.00;;;;;;5060640;28;20067;-80
2020/12/19 09:53:05;;;;;;;14.80;9.63;;;0.00;91.00;;;;;;5058053;28;20106;-81
2020/12/19 09:55:32;;;;;;;11.82;9.73;;;0.10;91.00;;;;;;5058341;28;20025;-82
2020/12/19 09:57:57;;;;;;;13.73;9.23;;;0.10;91.00;;;;;;5057934;28;20021;-81
2020/12/19 10:00:23;;;;;;;15.65;10.27;;;0.10;90.90;;;;;;5040465;28;20398;-80
2020/12/19 10:02:53;;;;;;;14.30;9.63;;;0.10;90.90;;;;;;5059902;28;20024;-81
2020/12/19 10:05:19;;;;;;;13.73;8.77;;;0.10;91.00;;;;;;5058061;28;20103;-79
2020/12/19 10:07:45;;;;;;;15.52;10.93;;;0.10;91.00;;;;;;5060726;28;20092;-80
2020/12/19 10:10:11;;;;;;;14.57;11.48;;;0.10;91.00;;;;;;5057566;28;20384;-80
2020/12/19 10:12:37;;;;;;;14.15;9.57;;;0.10;91.10;;;;;;5054897;28;20036;-80
2020/12/19 10:15:05;;;;;;;15.48;9.48;;;0.10;91.00;;;;;;5054458;28;20062;-81
2020/12/19 10:17:31;;;;;;;15.40;10.38;;;0.00;91.10;;;;;;5036059;28;20021;-81
2020/12/19 10:19:56;;;;;;;18.02;11.30;;;0.00;91.20;;;;;;5050898;28;20544;-81
2020/12/19 10:22:22;;;;;;;12.57;8.75;;;0.10;91.20;;;;;;5057352;28;20021;-79
2020/12/19 10:24:48;;;;;;;13.68;9.82;;;0.10;91.10;;;;;;5055219;28;20080;-80
2020/12/19 10:27:14;;;;;;;14.65;9.90;;;0.10;91.20;;;;;;5056562;28;20033;-81
2020/12/19 10:29:40;;;;;;;18.00;10.80;;;0.10;91.50;;;;;;5063345;28;20032;-80
2020/12/19 10:32:10;;;;;;;18.67;11.73;;;0.10;91.30;;;;;;5060988;28;20516;-78
2020/12/19 10:34:36;;;;;;;14.50;11.15;;;0.10;91.30;;;;;;5037375;28;20541;-80
2020/12/19 10:37:04;;;;;;;13.52;11.10;;;0.20;91.30;;;;;;5056004;28;20021;-79
2020/12/19 10:39:30;;;;;;;16.77;10.50;;;0.20;91.20;;;;;;5054125;28;20036;-81
2020/12/19 10:41:56;;;;;;;15.70;11.02;;;0.20;91.20;;;;;;5054671;28;20032;-81
2020/12/19 10:44:22;;;;;;;14.15;10.13;;;0.20;91.10;;;;;;5055082;28;20032;-80
2020/12/19 10:46:48;;;;;;;14.38;9.27;;;0.20;91.00;;;;;;5055497;28;20029;-81
2020/12/19 10:49:14;;;;;;;14.75;10.55;;;0.20;91.10;;;;;;5067204;28;20482;-82
2020/12/19 10:51:40;;;;;;;13.45;8.88;;;0.20;91.10;;;;;;5061168;28;20028;-80
2020/12/19 10:54:06;;;;;;;13.35;8.50;;;0.20;91.10;;;;;;5054396;28;20033;-81
2020/12/19 10:56:31;;;;;;;12.95;8.88;;;0.20;91.00;;;;;;5054087;28;20021;-79
2020/12/19 10:58:57;;;;;;;16.10;9.05;;;0.20;91.10;;;;;;5054536;28;20036;-79
2020/12/19 11:01:23;;;;;;;14.52;8.38;;;0.10;91.00;;;;;;5056598;28;20108;-80
2020/12/19 11:03:49;;;;;;;14.45;9.75;;;0.10;91.00;;;;;;5056931;28;20061;-79
2020/12/19 11:06:26;;;;;;;10.50;7.72;;;0.10;91.00;;;;;;5060088;28;20374;-79
2020/12/19 11:08:53;;;;;;;12.32;8.23;;;0.20;90.90;;;;;;5054944;28;20083;-79
2020/12/19 11:11:20;;;;;;;10.52;7.72;;;0.10;90.90;;;;;;5054254;28;20028;-80
2020/12/19 11:13:47;;;;;;;10.20;8.38;;;0.10;90.80;;;;;;5056219;28;20044;-79
2020/12/19 11:16:27;;;;;;;10.67;8.10;;;0.10;90.80;;;;;;5053800;28;20017;-79
2020/12/19 11:18:54;;;;;;;15.20;9.48;;;0.10;90.80;;;;;;5053826;28;20021;-80
2020/12/19 11:21:20;;;;;;;15.05;7.43;;;0.10;90.70;;;;;;5055636;28;20386;-81
2020/12/19 11:23:47;;;;;;;15.52;11.38;;;0.10;90.60;;;;;;5054108;28;20037;-80
2020/12/19 11:26:13;;;;;;;9.23;6.88;;;0.10;90.60;;;;;;5054801;28;20111;-80
2020/12/19 11:28:39;;;;;;;12.25;7.50;;;0.10;90.60;;;;;;5053653;28;20091;-80
2020/12/19 11:31:06;;;;;;;11.90;8.52;;;0.00;90.60;;;;;;5053800;28;20029;-82
2020/12/19 11:33:33;;;;;;;10.77;7.95;;;0.00;90.60;;;;;;5054645;28;20055;-81
2020/12/19 11:36:01;;;;;;;10.25;7.93;;;0.00;90.60;;;;;;5054397;28;20047;-81
2020/12/19 11:38:27;;;;;;;11.27;7.60;;;0.00;90.60;;;;;;5053418;28;20108;-81
2020/12/19 11:40:53;;;;;;;11.50;8.27;;;0.10;90.50;;;;;;5050164;28;20052;-79
2020/12/19 11:43:27;;;;;;;11.82;8.43;;;0.10;90.40;;;;;;5047421;28;20029;-81
2020/12/19 11:45:54;;;;;;;9.25;7.07;;;0.10;90.30;;;;;;5053827;28;20052;-81
2020/12/19 11:48:20;;;;;;;11.05;8.35;;;0.10;90.30;;;;;;5053412;28;20479;-80
2020/12/19 11:50:46;;;;;;;13.20;8.65;;;0.10;90.30;;;;;;5053464;28;20484;-80
2020/12/19 11:53:13;;;;;;;12.15;8.52;;;0.00;90.30;;;;;;5053368;28;20032;-79
2020/12/19 11:55:38;;;;;;;11.90;7.87;;;0.00;90.30;;;;;;5051045;28;20021;-80
2020/12/19 11:58:04;;;;;;;11.55;7.93;;;-0.10;90.30;;;;;;5054702;28;20017;-81
2020/12/19 12:00:30;;;;;;;12.10;8.20;;;-0.10;90.30;;;;;;5034982;28;20099;-79
2020/12/19 12:02:56;;;;;;;12.48;6.90;;;-0.10;90.30;;;;;;5035369;28;20535;-80
2020/12/19 12:05:22;;;;;;;15.15;9.30;;;-0.10;90.30;;;;;;5053307;28;20025;-80
2020/12/19 12:07:48;;;;;;;11.60;8.43;;;-0.20;90.30;;;;;;5034952;28;20031;-80
2020/12/19 12:10:13;;;;;;;16.80;8.55;;;-0.10;90.40;;;;;;5034835;28;20033;-80
2020/12/19 12:12:39;;;;;;;13.35;8.60;;;-0.10;90.40;;;;;;5052910;28;20441;-81
2020/12/19 12:15:05;;;;;;;17.38;8.95;;;-0.10;90.30;;;;;;5053143;28;20033;-82
2020/12/19 12:17:31;;;;;;;12.68;7.78;;;-0.10;90.50;;;;;;5053000;28;20032;-81
2020/12/19 12:19:56;;;;;;;11.07;8.20;;;-0.10;90.20;;;;;;5038681;28;20066;-80
2020/12/19 12:22:22;;;;;;;12.50;7.97;;;-0.10;90.20;;;;;;5053147;28;20052;-81
2020/12/19 12:24:48;;;;;;;12.70;8.10;;;-0.10;90.20;;;;;;5035046;28;20402;-81
2020/12/19 12:27:14;;;;;;;11.27;8.23;;;-0.10;90.20;;;;;;5053969;28;20494;-81
2020/12/19 12:29:39;;;;;;;17.55;8.98;;;-0.10;90.30;;;;;;5051703;28;20100;-82
2020/12/19 12:32:05;;;;;;;20.70;8.57;;;-0.10;90.30;;;;;;5072628;28;20060;-80
2020/12/19 12:34:31;;;;;;;14.18;8.77;;;-0.10;90.30;;;;;;5054816;28;20037;-80
2020/12/19 12:36:57;;;;;;;10.05;7.30;;;0.00;90.20;;;;;;5041457;28;20021;-79
2020/12/19 12:39:23;;;;;;;16.17;9.63;;;0.00;90.20;;;;;;5065318;28;20055;-79
2020/12/19 12:41:49;;;;;;;12.00;8.45;;;0.00;90.20;;;;;;5051539;28;20096;-77